createdAt,value
2017-08-27T00:00:31.029Z,11.93
2017-08-27T00:02:57.233Z,11.33
2017-08-27T00:05:23.436Z,13.13
2017-08-27T00:07:49.887Z,9.50
2017-08-27T00:10:16.099Z,10.10
2017-08-27T00:12:42.335Z,11.07
2017-08-27T00:15:08.530Z,10.60
2017-08-27T00:17:35.021Z,13.53
2017-08-27T00:20:01.348Z,13.73
2017-08-27T00:22:27.572Z,13.90
2017-08-27T00:24:53.801Z,13.67
2017-08-27T00:27:20.000Z,14.47
2017-08-27T00:29:46.208Z,15.60
2017-08-27T00:32:12.764Z,15.20
2017-08-27T00:34:38.988Z,16.17
2017-08-27T00:37:05.201Z,18.70
2017-08-27T00:39:31.438Z,18.30
2017-08-27T00:41:57.643Z,18.67
2017-08-27T00:44:23.868Z,19.63
2017-08-27T00:46:50.084Z,18.43
2017-08-27T00:49:16.323Z,19.17
2017-08-27T00:51:42.896Z,19.57
2017-08-27T00:54:09.112Z,20.43
2017-08-27T00:56:35.377Z,21.33
2017-08-27T00:59:01.987Z,21.33
2017-08-27T01:01:28.195Z,20.97
2017-08-27T01:03:54.423Z,24.20
2017-08-27T01:06:20.792Z,23.97
2017-08-27T01:08:47.019Z,22.73
2017-08-27T01:11:13.284Z,23.50
2017-08-27T01:13:39.509Z,26.37
2017-08-27T01:16:05.744Z,24.50
2017-08-27T01:18:31.952Z,25.27
2017-08-27T01:20:58.336Z,25.10
2017-08-27T01:23:24.559Z,27.10
2017-08-27T01:25:50.782Z,28.10
2017-08-27T01:28:16.991Z,27.20
2017-08-27T01:30:43.207Z,26.00
2017-08-27T01:33:09.747Z,27.07
2017-08-27T01:35:35.975Z,28.40
2017-08-27T01:38:02.293Z,27.10
2017-08-27T01:40:28.913Z,27.23
2017-08-27T01:42:55.130Z,32.60
2017-08-27T01:45:21.354Z,30.63
2017-08-27T01:47:47.813Z,33.47
2017-08-27T01:50:14.032Z,32.30
2017-08-27T01:52:40.261Z,32.30
2017-08-27T01:55:06.525Z,33.53
2017-08-27T01:57:32.746Z,35.30
2017-08-27T01:59:58.962Z,34.33
2017-08-27T02:02:25.534Z,33.27
2017-08-27T02:04:51.750Z,35.30
2017-08-27T02:07:17.974Z,34.90
2017-08-27T02:09:44.201Z,37.60
2017-08-27T02:12:10.432Z,37.70
2017-08-27T02:14:36.700Z,36.20
2017-08-27T02:17:02.928Z,39.50
2017-08-27T02:19:29.171Z,38.30
2017-08-27T02:21:55.424Z,39.10
2017-08-27T02:24:21.649Z,38.40
2017-08-27T02:26:47.870Z,41.73
2017-08-27T02:29:14.141Z,40.47
2017-08-27T02:31:40.357Z,39.37
2017-08-27T02:34:06.578Z,41.90
2017-08-27T02:36:33.070Z,41.87
2017-08-27T02:38:59.293Z,41.50
2017-08-27T02:41:25.507Z,42.03
2017-08-27T02:43:51.858Z,43.03
2017-08-27T02:46:18.093Z,44.43
2017-08-27T02:48:44.330Z,43.73
2017-08-27T02:51:10.577Z,42.47
2017-08-27T02:53:36.798Z,43.70
2017-08-27T02:56:03.013Z,42.23
2017-08-27T02:58:29.247Z,41.13
2017-08-27T03:00:55.505Z,44.17
2017-08-27T03:03:21.731Z,42.17
2017-08-27T03:05:55.038Z,44.93
2017-08-27T03:08:21.254Z,45.07
2017-08-27T03:10:47.483Z,43.20
2017-08-27T03:13:13.782Z,44.67
2017-08-27T03:15:40.002Z,42.90
2017-08-27T03:18:06.214Z,43.53
2017-08-27T03:20:32.500Z,44.20
2017-08-27T03:22:58.717Z,44.57
2017-08-27T03:25:24.945Z,44.70
2017-08-27T03:27:51.197Z,44.30
2017-08-27T03:30:17.436Z,45.00
2017-08-27T03:32:43.662Z,46.00
2017-08-27T03:35:10.317Z,45.60
2017-08-27T03:37:36.545Z,46.70
2017-08-27T03:40:02.799Z,47.00
2017-08-27T03:42:29.413Z,46.00
2017-08-27T03:44:55.644Z,43.87
2017-08-27T03:47:21.874Z,44.37
2017-08-27T03:49:48.138Z,47.90
2017-08-27T03:52:14.359Z,45.90
2017-08-27T03:54:40.576Z,43.70
2017-08-27T03:57:06.809Z,45.57
2017-08-27T03:59:33.237Z,49.77
2017-08-27T04:01:59.450Z,48.50
2017-08-27T04:04:25.674Z,48.07
2017-08-27T04:06:51.909Z,46.90
2017-08-27T04:09:18.153Z,49.40
2017-08-27T04:11:44.378Z,49.13
2017-08-27T04:14:10.638Z,46.10
2017-08-27T04:16:36.858Z,47.03
2017-08-27T04:19:03.090Z,50.57
2017-08-27T04:21:29.382Z,49.60
2017-08-27T04:23:55.596Z,50.17
2017-08-27T04:26:21.812Z,50.47
2017-08-27T04:28:48.064Z,51.40
2017-08-27T04:31:14.282Z,50.90
2017-08-27T04:33:40.499Z,48.97
2017-08-27T04:36:06.744Z,48.20
2017-08-27T04:38:32.971Z,52.03
2017-08-27T04:40:59.205Z,51.13
2017-08-27T04:43:25.470Z,53.60
2017-08-27T04:45:51.703Z,56.93
2017-08-27T04:48:17.938Z,120.30
2017-08-27T04:50:44.411Z,60.43
2017-08-27T04:53:10.689Z,91.73
2017-08-27T04:55:36.921Z,55.63
2017-08-27T04:58:03.189Z,55.27
2017-08-27T05:00:29.410Z,61.30
2017-08-27T05:02:55.683Z,54.83
2017-08-27T05:05:21.935Z,52.33
2017-08-27T05:07:48.224Z,58.23
2017-08-27T05:10:14.454Z,55.30
2017-08-27T05:12:40.669Z,54.60
2017-08-27T05:15:06.899Z,55.03
2017-08-27T05:17:33.125Z,54.37
2017-08-27T05:19:59.407Z,52.20
2017-08-27T05:22:25.630Z,51.20
2017-08-27T05:24:51.853Z,57.40
2017-08-27T05:27:18.104Z,56.13
2017-08-27T05:29:44.337Z,94.73
2017-08-27T05:32:10.589Z,57.20
2017-08-27T05:34:36.851Z,57.87
2017-08-27T05:37:03.078Z,60.77
2017-08-27T05:39:29.309Z,55.60
2017-08-27T05:41:55.679Z,51.83
2017-08-27T05:44:21.919Z,52.30
2017-08-27T05:46:48.187Z,55.03
2017-08-27T05:49:14.726Z,47.27
2017-08-27T05:51:41.255Z,76.63
2017-08-27T05:54:07.537Z,45.80
2017-08-27T05:56:33.834Z,50.70
2017-08-27T05:59:00.062Z,51.03
2017-08-27T06:01:26.468Z,46.20
2017-08-27T06:03:52.714Z,45.87
2017-08-27T06:06:18.951Z,45.47
2017-08-27T06:08:45.374Z,42.67
2017-08-27T06:11:11.633Z,46.97
2017-08-27T06:13:38.010Z,39.07
2017-08-27T06:16:04.739Z,38.63
2017-08-27T06:18:31.378Z,40.57
2017-08-27T06:20:58.157Z,41.33
2017-08-27T06:23:24.558Z,48.67
2017-08-27T06:25:50.785Z,96.00
2017-08-27T06:28:17.103Z,61.97
2017-08-27T06:30:43.364Z,28.17
2017-08-27T06:33:09.722Z,27.43
2017-08-27T06:35:36.223Z,24.93
2017-08-27T06:38:02.465Z,43.73
2017-08-27T06:40:28.679Z,20.53
2017-08-27T06:42:55.961Z,44.93
2017-08-27T06:45:22.303Z,34.53
2017-08-27T06:47:48.596Z,54.83
2017-08-27T06:50:14.809Z,14.20
2017-08-27T06:52:41.062Z,16.53
2017-08-27T06:55:08.028Z,17.03
2017-08-27T06:57:34.267Z,13.27
2017-08-27T07:00:00.534Z,11.90
2017-08-27T07:02:27.537Z,14.13
2017-08-27T07:04:53.859Z,11.87
2017-08-27T07:07:20.117Z,9.20
2017-08-27T07:09:46.352Z,8.90
2017-08-27T07:12:13.584Z,9.40
2017-08-27T07:14:40.748Z,27.67
2017-08-27T07:17:07.950Z,14.03
2017-08-27T07:19:35.552Z,10.23
2017-08-27T07:22:01.934Z,9.73
2017-08-27T07:24:28.165Z,20.83
2017-08-27T07:26:54.424Z,11.70
2017-08-27T07:29:20.641Z,6.40
2017-08-27T07:31:46.901Z,6.27
2017-08-27T07:34:13.447Z,6.33
2017-08-27T07:36:39.662Z,5.30
2017-08-27T07:39:06.215Z,4.83
2017-08-27T07:41:32.964Z,4.20
2017-08-27T07:43:59.193Z,20.00
2017-08-27T07:46:25.432Z,3.73
2017-08-27T07:48:51.678Z,3.40
2017-08-27T07:51:18.184Z,3.30
2017-08-27T07:53:45.333Z,3.60
2017-08-27T07:56:11.870Z,3.10
2017-08-27T07:58:38.145Z,2.93
2017-08-27T08:01:11.594Z,8.83
2017-08-27T08:03:37.822Z,8.30
2017-08-27T08:06:04.066Z,17.23
2017-08-27T08:08:30.302Z,3.87
2017-08-27T08:10:56.603Z,8.47
2017-08-27T08:13:22.863Z,6.30
2017-08-27T08:15:49.379Z,24.37
2017-08-27T08:18:15.614Z,38.37
2017-08-27T08:20:41.824Z,23.47
2017-08-27T08:23:08.257Z,6.40
2017-08-27T08:25:34.497Z,2.80
2017-08-27T08:28:00.716Z,2.87
2017-08-27T08:30:27.258Z,2.17
2017-08-27T08:32:53.477Z,1.77
2017-08-27T08:35:19.711Z,2.17
2017-08-27T08:37:45.986Z,14.00
2017-08-27T08:40:12.218Z,2.80
2017-08-27T08:42:38.467Z,3.63
2017-08-27T08:45:04.717Z,2.30
2017-08-27T08:47:30.949Z,2.30
2017-08-27T08:49:57.173Z,1.80
2017-08-27T08:52:23.414Z,1.90
2017-08-27T08:54:49.634Z,1.53
2017-08-27T08:57:15.868Z,7.07
2017-08-27T08:59:42.383Z,7.47
2017-08-27T09:02:08.610Z,2.03
2017-08-27T09:04:34.838Z,9.33
2017-08-27T09:07:01.099Z,3.80
2017-08-27T09:09:27.330Z,2.30
2017-08-27T09:11:53.542Z,2.07
2017-08-27T09:14:19.872Z,2.20
2017-08-27T09:16:46.093Z,2.63
2017-08-27T09:19:12.306Z,2.70
2017-08-27T09:21:39.360Z,3.47
2017-08-27T09:24:05.586Z,3.77
2017-08-27T09:26:31.815Z,2.87
2017-08-27T09:28:58.035Z,24.60
2017-08-27T09:31:24.270Z,9.43
2017-08-27T09:33:50.717Z,14.10
2017-08-27T09:36:16.931Z,5.33
2017-08-27T09:38:43.144Z,5.93
2017-08-27T09:41:09.414Z,11.03
2017-08-27T09:43:35.630Z,20.37
2017-08-27T09:46:01.853Z,2.73
2017-08-27T09:48:28.141Z,3.83
2017-08-27T09:50:54.361Z,2.33
2017-08-27T09:53:20.573Z,2.63
2017-08-27T09:55:46.802Z,3.40
2017-08-27T09:58:13.029Z,1.97
2017-08-27T10:00:39.241Z,10.63
2017-08-27T10:03:05.759Z,2.43
2017-08-27T10:05:31.981Z,2.13
2017-08-27T10:07:58.185Z,37.87
2017-08-27T10:10:24.475Z,2.60
2017-08-27T10:12:50.678Z,6.60
2017-08-27T10:15:17.045Z,7.50
2017-08-27T10:17:43.250Z,4.20
2017-08-27T10:20:09.478Z,3.20
2017-08-27T10:22:35.731Z,2.37
2017-08-27T10:25:01.970Z,10.33
2017-08-27T10:27:28.198Z,10.27
2017-08-27T10:29:54.463Z,4.63
2017-08-27T10:32:20.673Z,2.23
2017-08-27T10:34:46.915Z,17.40
2017-08-27T10:37:13.166Z,6.13
2017-08-27T10:39:39.401Z,4.90
2017-08-27T10:42:05.635Z,2.20
2017-08-27T10:44:31.858Z,2.03
2017-08-27T10:46:58.089Z,2.63
2017-08-27T10:49:24.347Z,2.40
2017-08-27T10:51:50.584Z,2.30
2017-08-27T10:54:16.820Z,3.30
2017-08-27T10:56:43.081Z,1.93
2017-08-27T10:59:09.304Z,2.73
2017-08-27T11:01:35.534Z,2.87
2017-08-27T11:04:01.826Z,2.00
2017-08-27T11:06:28.071Z,2.00
2017-08-27T11:08:54.293Z,1.73
2017-08-27T11:11:20.546Z,2.43
2017-08-27T11:13:46.781Z,2.80
2017-08-27T11:16:13.018Z,1.90
2017-08-27T11:18:39.282Z,2.50
2017-08-27T11:21:05.506Z,2.00
2017-08-27T11:23:31.731Z,16.00
2017-08-27T11:25:58.117Z,3.90
2017-08-27T11:28:24.333Z,1.90
2017-08-27T11:30:50.550Z,2.17
2017-08-27T11:33:16.817Z,4.90
2017-08-27T11:35:43.035Z,2.00
2017-08-27T11:38:09.246Z,1.90
2017-08-27T11:40:35.683Z,1.80
2017-08-27T11:43:01.941Z,1.77
2017-08-27T11:45:28.169Z,3.70
2017-08-27T11:47:54.419Z,19.53
2017-08-27T11:50:20.663Z,12.67
2017-08-27T11:52:46.884Z,10.43
2017-08-27T11:55:13.157Z,20.47
2017-08-27T11:57:39.522Z,7.53
2017-08-27T12:00:05.794Z,8.40
2017-08-27T12:02:32.042Z,30.10
2017-08-27T12:04:58.261Z,12.40
2017-08-27T12:07:24.502Z,3.70
2017-08-27T12:09:50.755Z,4.60
2017-08-27T12:12:16.986Z,3.80
2017-08-27T12:14:43.207Z,2.10
2017-08-27T12:17:09.731Z,3.30
2017-08-27T12:19:35.972Z,4.03
2017-08-27T12:22:02.234Z,1.53
2017-08-27T12:24:28.471Z,1.67
2017-08-27T12:26:54.733Z,1.90
2017-08-27T12:29:20.966Z,1.80
2017-08-27T12:31:47.216Z,6.40
2017-08-27T12:34:13.453Z,5.50
2017-08-27T12:36:39.715Z,2.30
2017-08-27T12:39:05.953Z,2.37
2017-08-27T12:41:32.185Z,1.30
2017-08-27T12:43:58.438Z,1.73
2017-08-27T12:46:24.687Z,2.67
2017-08-27T12:48:50.929Z,1.60
2017-08-27T12:51:17.149Z,1.47
2017-08-27T12:53:43.383Z,1.90
2017-08-27T12:56:09.647Z,1.80
2017-08-27T12:58:35.897Z,1.60
2017-08-27T13:01:02.168Z,2.57
2017-08-27T13:03:28.782Z,1.40
2017-08-27T13:05:55.031Z,4.50
2017-08-27T13:08:21.293Z,1.43
2017-08-27T13:10:47.546Z,1.40
2017-08-27T13:13:13.785Z,2.93
2017-08-27T13:15:40.073Z,6.17
2017-08-27T13:18:06.335Z,1.47
2017-08-27T13:20:34.304Z,2.20
2017-08-27T13:23:01.383Z,1.93
2017-08-27T13:25:30.027Z,21.17
2017-08-27T13:27:59.024Z,23.97
2017-08-27T13:30:27.091Z,6.30
2017-08-27T13:32:54.409Z,10.27
2017-08-27T13:35:21.769Z,1.50
2017-08-27T13:37:49.065Z,10.80
2017-08-27T13:40:16.163Z,1.83
2017-08-27T13:42:43.516Z,1.97
2017-08-27T13:45:10.696Z,2.90
2017-08-27T13:47:37.786Z,2.37
2017-08-27T13:50:04.868Z,8.63
2017-08-27T13:52:32.226Z,3.40
2017-08-27T13:54:59.593Z,15.50
2017-08-27T13:57:26.660Z,10.93
2017-08-27T13:59:53.813Z,8.13
2017-08-27T14:02:21.062Z,2.07
2017-08-27T14:04:48.063Z,1.60
2017-08-27T14:07:15.175Z,2.07
2017-08-27T14:09:42.235Z,5.20
2017-08-27T14:12:08.853Z,25.07
2017-08-27T14:14:35.934Z,1.83
2017-08-27T14:17:03.121Z,15.47
2017-08-27T14:19:29.389Z,13.30
2017-08-27T14:21:56.608Z,5.43
2017-08-27T14:24:22.960Z,5.50
2017-08-27T14:26:50.038Z,10.20
2017-08-27T14:29:18.145Z,2.57
2017-08-27T14:31:44.455Z,1.60
2017-08-27T14:34:10.690Z,1.90
2017-08-27T14:36:36.942Z,2.40
2017-08-27T14:39:03.966Z,1.43
2017-08-27T14:41:31.313Z,1.70
2017-08-27T14:43:58.349Z,1.87
2017-08-27T14:46:24.673Z,5.53
2017-08-27T14:48:50.968Z,1.80
2017-08-27T14:51:18.057Z,11.23
2017-08-27T14:53:45.253Z,2.10
2017-08-27T14:56:11.558Z,2.33
2017-08-27T14:58:37.791Z,1.67
2017-08-27T15:01:04.069Z,7.13
2017-08-27T15:03:30.300Z,1.30
2017-08-27T15:05:56.564Z,2.20
2017-08-27T15:08:23.168Z,2.33
2017-08-27T15:10:51.469Z,2.33
2017-08-27T15:13:19.377Z,12.17
2017-08-27T15:15:45.661Z,6.47
2017-08-27T15:18:12.755Z,1.50
2017-08-27T15:20:41.627Z,11.27
2017-08-27T15:23:09.646Z,1.50
2017-08-27T15:25:35.905Z,4.07
2017-08-27T15:28:03.454Z,9.63
2017-08-27T15:30:29.745Z,35.97
2017-08-27T15:32:56.012Z,30.87
2017-08-27T15:35:22.285Z,38.17
2017-08-27T15:37:48.555Z,4.50
2017-08-27T15:40:15.740Z,1.80
2017-08-27T15:42:42.119Z,3.60
2017-08-27T15:45:08.354Z,1.90
2017-08-27T15:47:34.572Z,2.23
2017-08-27T15:50:00.953Z,1.90
2017-08-27T15:52:27.988Z,3.17
2017-08-27T15:54:54.223Z,9.97
2017-08-27T15:57:20.502Z,15.60
2017-08-27T15:59:46.953Z,1.90
2017-08-27T16:02:13.191Z,2.20
2017-08-27T16:04:40.021Z,4.73
2017-08-27T16:07:06.255Z,2.40
2017-08-27T16:09:33.614Z,4.27
2017-08-27T16:11:59.876Z,5.50
2017-08-27T16:14:26.126Z,1.90
2017-08-27T16:16:52.435Z,1.97
2017-08-27T16:19:18.693Z,3.30
2017-08-27T16:21:45.848Z,2.13
2017-08-27T16:24:12.147Z,3.30
2017-08-27T16:26:39.155Z,4.37
2017-08-27T16:29:06.327Z,3.80
2017-08-27T16:31:32.643Z,2.20
2017-08-27T16:33:59.129Z,1.90
2017-08-27T16:36:25.397Z,26.60
2017-08-27T16:38:51.655Z,17.77
2017-08-27T16:41:17.934Z,8.57
2017-08-27T16:43:44.790Z,2.30
2017-08-27T16:46:12.042Z,2.07
2017-08-27T16:48:40.182Z,12.57
2017-08-27T16:51:06.465Z,15.93
2017-08-27T16:53:32.781Z,10.93
2017-08-27T16:55:59.071Z,3.20
2017-08-27T16:58:25.938Z,13.07
2017-08-27T17:00:52.772Z,51.00
2017-08-27T17:03:19.292Z,3.10
2017-08-27T17:05:46.021Z,2.33
2017-08-27T17:08:12.951Z,4.30
2017-08-27T17:10:39.405Z,5.80
2017-08-27T17:13:05.666Z,3.27
2017-08-27T17:15:32.781Z,3.87
2017-08-27T17:18:00.108Z,4.80
2017-08-27T17:20:27.066Z,3.50
2017-08-27T17:22:53.905Z,3.70
2017-08-27T17:25:20.859Z,3.00
2017-08-27T17:27:47.122Z,2.47
2017-08-27T17:30:13.736Z,3.00
2017-08-27T17:32:40.276Z,3.37
2017-08-27T17:35:07.378Z,5.00
2017-08-27T17:37:35.738Z,4.40
2017-08-27T17:40:02.704Z,4.03
2017-08-27T17:42:29.047Z,5.63
2017-08-27T17:44:56.846Z,3.10
2017-08-27T17:47:25.214Z,38.83
2017-08-27T17:49:52.231Z,3.00
2017-08-27T17:52:18.499Z,2.60
2017-08-27T17:54:44.752Z,15.07
2017-08-27T17:57:11.068Z,15.53
2017-08-27T17:59:37.374Z,2.80
2017-08-27T18:02:03.639Z,3.63
2017-08-27T18:04:30.197Z,15.67
2017-08-27T18:06:56.441Z,3.37
2017-08-27T18:09:22.703Z,2.60
2017-08-27T18:11:49.896Z,5.40
2017-08-27T18:14:16.836Z,19.17
2017-08-27T18:16:43.115Z,3.73
2017-08-27T18:19:11.042Z,2.70
2017-08-27T18:21:39.581Z,7.57
2017-08-27T18:24:05.811Z,96.77
2017-08-27T18:26:36.017Z,21.97
2017-08-27T18:29:02.266Z,12.17
2017-08-27T18:31:29.285Z,19.00
2017-08-27T18:33:57.545Z,6.00
2017-08-27T18:36:25.618Z,75.43
2017-08-27T18:38:52.785Z,11.97
2017-08-27T18:41:19.372Z,20.40
2017-08-27T18:43:46.249Z,19.47
2017-08-27T18:46:13.434Z,4.80
2017-08-27T18:48:42.277Z,6.53
2017-08-27T18:51:09.442Z,3.80
2017-08-27T18:53:36.626Z,15.37
2017-08-27T18:56:04.796Z,39.83
2017-08-27T18:58:31.024Z,6.33
2017-08-27T19:00:59.018Z,14.30
2017-08-27T19:03:25.331Z,12.00
2017-08-27T19:05:52.576Z,7.57
2017-08-27T19:08:18.854Z,4.47
2017-08-27T19:10:45.936Z,3.50
2017-08-27T19:13:12.180Z,8.97
2017-08-27T19:15:40.183Z,3.83
2017-08-27T19:18:06.730Z,5.60
2017-08-27T19:20:33.007Z,7.83
2017-08-27T19:23:01.041Z,7.27
2017-08-27T19:25:27.668Z,18.27
2017-08-27T19:27:54.760Z,23.50
2017-08-27T19:30:21.570Z,14.50
2017-08-27T19:32:47.865Z,10.47
2017-08-27T19:35:14.094Z,15.40
2017-08-27T19:37:40.367Z,12.47
2017-08-27T19:40:06.649Z,21.10
2017-08-27T19:42:32.909Z,8.23
2017-08-27T19:44:59.151Z,17.27
2017-08-27T19:47:25.647Z,14.70
2017-08-27T19:49:52.256Z,19.60
2017-08-27T19:52:18.477Z,13.33
2017-08-27T19:54:44.749Z,6.50
2017-08-27T19:57:11.257Z,7.10
2017-08-27T19:59:37.500Z,11.03
2017-08-27T20:02:03.770Z,7.27
2017-08-27T20:04:30.043Z,5.70
2017-08-27T20:06:56.265Z,8.10
2017-08-27T20:09:22.722Z,7.40
2017-08-27T20:11:48.950Z,8.87
2017-08-27T20:14:15.508Z,21.27
2017-08-27T20:16:41.814Z,5.10
2017-08-27T20:19:08.221Z,15.50
2017-08-27T20:21:35.222Z,5.70
2017-08-27T20:24:01.486Z,7.20
2017-08-27T20:26:27.743Z,46.20
2017-08-27T20:28:54.037Z,4.77
2017-08-27T20:31:20.338Z,5.47
2017-08-27T20:33:46.589Z,5.20
2017-08-27T20:36:12.838Z,5.37
2017-08-27T20:38:39.162Z,5.10
2017-08-27T20:41:05.388Z,4.47
2017-08-27T20:43:31.621Z,4.10
2017-08-27T20:45:58.195Z,4.47
2017-08-27T20:48:24.417Z,4.80
2017-08-27T20:50:50.871Z,4.60
2017-08-27T20:53:17.155Z,5.23
2017-08-27T20:55:43.400Z,4.53
2017-08-27T20:58:09.643Z,5.87
2017-08-27T21:00:35.903Z,6.57
2017-08-27T21:03:02.159Z,7.60
2017-08-27T21:05:28.382Z,5.27
2017-08-27T21:07:54.607Z,5.90
2017-08-27T21:10:20.858Z,8.20
2017-08-27T21:12:47.089Z,5.33
2017-08-27T21:15:13.314Z,5.07
2017-08-27T21:17:39.548Z,5.70
2017-08-27T21:20:05.814Z,6.80
2017-08-27T21:22:32.041Z,6.20
2017-08-27T21:24:58.294Z,6.30
2017-08-27T21:27:24.529Z,5.53
2017-08-27T21:29:50.757Z,6.30
2017-08-27T21:32:16.995Z,5.90
2017-08-27T21:34:43.228Z,6.40
2017-08-27T21:37:09.500Z,5.53
2017-08-27T21:39:35.739Z,6.40
2017-08-27T21:42:02.048Z,6.30
2017-08-27T21:44:28.344Z,6.77
2017-08-27T21:46:54.567Z,8.13
2017-08-27T21:49:20.794Z,6.40
2017-08-27T21:51:47.381Z,8.80
2017-08-27T21:54:13.613Z,7.07
2017-08-27T21:56:39.837Z,6.10
2017-08-27T21:59:06.306Z,5.97
2017-08-27T22:01:32.538Z,5.70
2017-08-27T22:03:58.768Z,6.50
2017-08-27T22:06:25.185Z,8.00
2017-08-27T22:08:51.401Z,6.87
2017-08-27T22:11:24.665Z,7.30
2017-08-27T22:13:50.907Z,7.93
2017-08-27T22:16:17.137Z,9.00
2017-08-27T22:18:43.415Z,9.50
2017-08-27T22:21:09.653Z,9.70
2017-08-27T22:23:35.859Z,9.60
2017-08-27T22:26:02.109Z,9.47
2017-08-27T22:28:28.392Z,7.83
2017-08-27T22:30:54.637Z,8.60
2017-08-27T22:33:20.874Z,8.80
2017-08-27T22:35:47.365Z,9.03
2017-08-27T22:38:13.590Z,8.07
2017-08-27T22:40:39.901Z,7.53
2017-08-27T22:43:06.356Z,7.73
2017-08-27T22:45:32.622Z,7.47
2017-08-27T22:47:59.601Z,7.43
2017-08-27T22:50:25.966Z,7.87
2017-08-27T22:52:52.199Z,7.90
2017-08-27T22:55:18.433Z,8.47
2017-08-27T22:57:44.726Z,7.70
2017-08-27T23:00:10.978Z,8.57
2017-08-27T23:02:37.241Z,8.63
2017-08-27T23:05:03.497Z,7.93
2017-08-27T23:07:29.719Z,10.60
2017-08-27T23:09:55.953Z,8.87
2017-08-27T23:12:22.201Z,7.53
2017-08-27T23:14:48.438Z,7.30
2017-08-27T23:17:14.672Z,8.17
2017-08-27T23:19:40.953Z,8.43
2017-08-27T23:22:07.182Z,6.83
2017-08-27T23:24:33.417Z,7.53
2017-08-27T23:26:59.689Z,8.07
2017-08-27T23:29:25.924Z,7.70
2017-08-27T23:31:52.140Z,8.00
2017-08-27T23:34:18.430Z,7.90
2017-08-27T23:36:44.654Z,7.90
2017-08-27T23:39:10.874Z,8.37
2017-08-27T23:41:37.111Z,7.10
2017-08-27T23:44:03.373Z,7.60
2017-08-27T23:46:29.731Z,7.70
2017-08-27T23:48:55.962Z,8.40
2017-08-27T23:51:22.188Z,8.93
2017-08-27T23:53:48.433Z,10.67
2017-08-27T23:56:14.649Z,7.57
2017-08-27T23:58:40.870Z,8.30
